Time;durP1;ratioP1;P1;durP2;ratioP2;P2;SDS_P1;SDS_P2;PMS_P1;PMS_P2;Temp;Humidity;BMP_temperature;BMP_pressure;BME280_temperature;BME280_humidity;BME280_pressure;Samples;Min_cycle;Max_cycle;Signal;HPM_P1;HPM_P2
2021/01/26 04:08:03;;;;;;;24.38;21.52;;;2.40;99.90;;;;;;5675793;23;20282;-69
2021/01/26 04:10:38;;;;;;;24.88;21.90;;;2.60;99.90;;;;;;4963974;28;20644;-70
2021/01/26 04:13:09;;;;;;;24.73;22.05;;;2.30;99.90;;;;;;4972964;28;20290;-70
2021/01/26 04:15:37;;;;;;;25.40;20.33;;;2.10;99.90;;;;;;4974099;28;20253;-77
2021/01/26 04:18:06;;;;;;;24.63;21.48;;;2.40;99.90;;;;;;4974067;28;20186;-70
2021/01/26 04:20:35;;;;;;;25.00;22.30;;;2.40;99.90;;;;;;4972769;28;20228;-77
2021/01/26 04:23:02;;;;;;;24.85;22.02;;;2.50;99.90;;;;;;4973896;28;20664;-77
2021/01/26 04:25:29;;;;;;;27.15;23.50;;;2.20;99.90;;;;;;4973980;28;20167;-77
2021/01/26 04:27:55;;;;;;;27.85;23.60;;;2.90;99.90;;;;;;4974019;28;20728;-77
2021/01/26 04:30:22;;;;;;;25.23;22.52;;;2.30;99.90;;;;;;4972429;28;20197;-77
2021/01/26 04:32:56;;;;;;;26.30;23.30;;;2.40;99.90;;;;;;4973964;28;20199;-77
2021/01/26 04:35:21;;;;;;;24.55;21.90;;;2.30;99.90;;;;;;4974026;28;20200;-77
2021/01/26 04:37:47;;;;;;;26.52;23.73;;;2.40;99.90;;;;;;4973429;28;20780;-77
2021/01/26 04:40:13;;;;;;;26.65;22.50;;;2.40;99.90;;;;;;4973796;28;20174;-76
2021/01/26 04:42:41;;;;;;;26.25;23.05;;;2.40;99.90;;;;;;4973604;28;20240;-76
2021/01/26 04:45:25;;;;;;;26.65;22.20;;;2.40;99.90;;;;;;4972478;28;20236;-76
2021/01/26 04:48:08;;;;;;;27.02;22.33;;;2.40;99.90;;;;;;4973499;28;20195;-77
2021/01/26 04:50:52;;;;;;;25.83;21.50;;;2.40;99.90;;;;;;4972481;28;20634;-76
2021/01/26 04:53:17;;;;;;;27.10;22.13;;;2.40;99.90;;;;;;4971943;28;20242;-76
2021/01/26 04:56:15;;;;;;;24.35;20.77;;;2.50;99.90;;;;;;4973342;28;20224;-76
2021/01/26 04:58:58;;;;;;;24.58;21.60;;;2.40;99.90;;;;;;4973536;28;20194;-76
2021/01/26 05:01:48;;;;;;;26.52;21.95;;;2.40;99.90;;;;;;4973391;28;20194;-77
2021/01/26 05:04:34;;;;;;;24.98;21.08;;;2.50;99.90;;;;;;4973794;28;20190;-77
2021/01/26 05:07:17;;;;;;;25.42;21.75;;;2.50;99.90;;;;;;4973335;28;20179;-77
2021/01/26 05:09:52;;;;;;;27.23;22.33;;;2.30;99.90;;;;;;4973064;28;20233;-77
2021/01/26 05:12:21;;;;;;;25.85;21.52;;;3.10;99.90;;;;;;4971887;28;20178;-76
2021/01/26 05:14:52;;;;;;;27.58;23.45;;;2.50;99.90;;;;;;4973218;28;20206;-75
2021/01/26 05:17:26;;;;;;;26.13;22.90;;;2.50;99.90;;;;;;4973173;28;20657;-77
2021/01/26 05:20:28;;;;;;;24.50;21.92;;;2.50;99.90;;;;;;4972123;28;20174;-76
2021/01/26 05:23:00;;;;;;;25.58;22.17;;;2.50;99.90;;;;;;4972202;28;20707;-77
2021/01/26 05:25:26;;;;;;;31.45;23.42;;;2.50;99.90;;;;;;4973188;28;20717;-76
2021/01/26 05:27:52;;;;;;;25.55;22.67;;;2.50;99.90;;;;;;4973066;28;20318;-77
2021/01/26 05:30:38;;;;;;;24.88;22.17;;;2.50;99.90;;;;;;4973165;28;20609;-76
2021/01/26 05:33:11;;;;;;;25.17;21.52;;;2.50;99.90;;;;;;4971565;28;20202;-75
2021/01/26 05:35:39;;;;;;;25.05;21.48;;;2.50;99.90;;;;;;4973034;28;20178;-77
2021/01/26 05:38:05;;;;;;;27.00;22.08;;;2.40;99.90;;;;;;4972586;28;20186;-76
2021/01/26 05:40:33;;;;;;;25.55;22.80;;;2.40;99.90;;;;;;4972100;28;20171;-76
2021/01/26 05:43:01;;;;;;;25.52;21.48;;;2.40;99.90;;;;;;4973036;28;20199;-77
2021/01/26 05:45:37;;;;;;;24.27;20.65;;;2.30;99.90;;;;;;4972911;28;20237;-77
2021/01/26 05:48:18;;;;;;;25.50;20.70;;;2.50;99.90;;;;;;4973093;28;20198;-77
2021/01/26 05:50:45;;;;;;;24.05;21.02;;;2.40;99.90;;;;;;4971657;28;20185;-76
2021/01/26 05:53:26;;;;;;;22.27;19.65;;;2.40;99.90;;;;;;4971216;28;20195;-77
2021/01/26 05:56:08;;;;;;;26.55;21.88;;;2.30;99.90;;;;;;4973026;28;20182;-76
2021/01/26 05:58:35;;;;;;;23.98;19.92;;;2.40;99.90;;;;;;4963047;28;20225;-75
2021/01/26 06:01:07;;;;;;;23.23;20.38;;;2.40;99.90;;;;;;4961058;28;20266;-77
2021/01/26 06:03:32;;;;;;;24.27;20.95;;;2.40;99.90;;;;;;4961405;28;20201;-77
2021/01/26 06:06:07;;;;;;;23.33;20.92;;;2.40;99.90;;;;;;4963629;28;20175;-76
2021/01/26 06:08:48;;;;;;;21.85;19.55;;;2.40;99.90;;;;;;4963194;28;20237;-77
2021/01/26 06:11:16;;;;;;;21.75;19.45;;;2.40;99.90;;;;;;4952043;29;20333;-69
2021/01/26 06:13:41;;;;;;;20.38;18.17;;;2.30;99.90;;;;;;4957575;28;20215;-68
2021/01/26 06:16:10;;;;;;;20.05;17.95;;;2.30;99.90;;;;;;4972662;28;20175;-77
2021/01/26 06:18:38;;;;;;;20.73;18.13;;;2.30;99.90;;;;;;4972774;28;20214;-75
2021/01/26 06:21:11;;;;;;;21.63;17.70;;;2.30;99.90;;;;;;4970294;28;20205;-76
2021/01/26 06:23:38;;;;;;;23.20;21.08;;;2.30;99.90;;;;;;4974586;28;20410;-75
2021/01/26 06:26:09;;;;;;;20.85;18.65;;;2.30;99.90;;;;;;4973190;28;20209;-75
2021/01/26 06:29:00;;;;;;;21.38;18.83;;;2.30;99.90;;;;;;4969638;28;20199;-75
2021/01/26 06:31:45;;;;;;;21.35;17.48;;;2.40;99.90;;;;;;4963165;28;20175;-74
2021/01/26 06:34:14;;;;;;;20.85;17.83;;;2.40;99.90;;;;;;4964023;28;20300;-75
2021/01/26 06:37:01;;;;;;;19.65;17.40;;;2.40;99.90;;;;;;4963160;28;20663;-75
2021/01/26 06:39:55;;;;;;;19.83;17.33;;;2.40;99.90;;;;;;4973567;28;20190;-75
2021/01/26 06:42:21;;;;;;;19.60;17.00;;;;;;;;;;4961666;28;20171;-75
2021/01/26 06:45:07;;;;;;;19.23;17.23;;;2.40;99.90;;;;;;4956010;28;20754;-74
2021/01/26 06:48:04;;;;;;;19.13;17.00;;;2.60;99.90;;;;;;4970923;28;20315;-75
2021/01/26 06:50:38;;;;;;;19.75;17.65;;;2.40;99.90;;;;;;4966343;28;20193;-75
2021/01/26 06:53:32;;;;;;;20.48;18.27;;;2.40;99.90;;;;;;4973517;28;20198;-75
2021/01/26 06:56:35;;;;;;;19.60;17.50;;;2.40;99.90;;;;;;4974309;28;20277;-75
2021/01/26 06:59:22;;;;;;;20.75;17.92;;;2.40;99.90;;;;;;4973821;28;20204;-75
2021/01/26 07:01:57;;;;;;;22.23;18.50;;;2.40;99.90;;;;;;4973844;28;20189;-75
2021/01/26 07:04:56;;;;;;;18.70;16.77;;;2.40;99.90;;;;;;4975089;28;20310;-74
2021/01/26 07:08:10;;;;;;;19.63;17.35;;;2.40;99.90;;;;;;4974920;28;20194;-74
2021/01/26 07:10:50;;;;;;;20.75;18.42;;;2.40;99.90;;;;;;4975189;28;20587;-74
2021/01/26 07:13:30;;;;;;;24.13;18.67;;;2.40;99.90;;;;;;4973429;28;20281;-74
2021/01/26 07:16:24;;;;;;;22.77;19.20;;;2.20;99.90;;;;;;4974830;28;20166;-74
2021/01/26 07:18:55;;;;;;;21.08;17.38;;;2.40;99.90;;;;;;4974825;28;20214;-74
2021/01/26 07:21:46;;;;;;;25.88;19.85;;;2.50;99.90;;;;;;4974859;28;20175;-74
2021/01/26 07:24:34;;;;;;;23.10;18.35;;;2.50;99.90;;;;;;4974385;28;20194;-74
2021/01/26 07:27:14;;;;;;;21.55;18.90;;;2.50;99.90;;;;;;4974737;28;20221;-74
2021/01/26 07:29:40;;;;;;;22.23;18.77;;;2.50;99.90;;;;;;4973343;28;20175;-74
2021/01/26 07:32:17;;;;;;;22.85;20.25;;;2.50;99.90;;;;;;4974760;28;20205;-74
2021/01/26 07:35:04;;;;;;;22.52;19.67;;;2.50;99.90;;;;;;4974551;28;20692;-74
2021/01/26 07:37:42;;;;;;;22.05;18.85;;;2.50;99.90;;;;;;4974425;28;20171;-74
2021/01/26 07:40:11;;;;;;;22.33;18.25;;;2.50;99.90;;;;;;4974757;28;20286;-74
2021/01/26 07:42:59;;;;;;;21.75;19.08;;;2.60;99.90;;;;;;4974538;28;20190;-74
2021/01/26 07:45:29;;;;;;;21.98;18.25;;;2.60;99.90;;;;;;4974672;28;20174;-74
2021/01/26 07:48:05;;;;;;;22.90;19.63;;;2.60;99.90;;;;;;4974536;28;20202;-74
2021/01/26 07:50:45;;;;;;;23.05;18.38;;;2.60;99.90;;;;;;4974734;28;20167;-74
2021/01/26 07:53:39;;;;;;;22.85;19.08;;;2.60;99.90;;;;;;4973964;28;20261;-74
2021/01/26 07:56:33;;;;;;;22.88;18.98;;;2.50;99.90;;;;;;4974515;28;20175;-74
2021/01/26 07:59:06;;;;;;;21.20;18.90;;;2.60;99.90;;;;;;4973035;28;20211;-74
2021/01/26 08:01:50;;;;;;;22.10;18.70;;;2.60;99.90;;;;;;4974439;28;20559;-74
2021/01/26 08:04:17;;;;;;;22.83;19.30;;;2.90;99.90;;;;;;4974204;28;20237;-74
2021/01/26 08:06:47;;;;;;;24.23;19.50;;;2.60;99.90;;;;;;4973024;28;20178;-74
2021/01/26 08:09:26;;;;;;;21.52;18.20;;;2.70;99.90;;;;;;4972357;28;20238;-74
2021/01/26 08:11:55;;;;;;;20.00;17.63;;;2.70;99.90;;;;;;4973917;28;20170;-74
2021/01/26 08:14:27;;;;;;;20.75;17.83;;;2.70;99.90;;;;;;4971945;28;20241;-74
2021/01/26 08:16:55;;;;;;;19.52;16.33;;;2.70;99.90;;;;;;4973939;28;20162;-74
2021/01/26 08:19:22;;;;;;;19.67;15.98;;;3.10;99.90;;;;;;4973820;28;20197;-74
2021/01/26 08:21:48;;;;;;;20.00;16.77;;;2.80;99.90;;;;;;4973978;28;20167;-74
2021/01/26 08:24:23;;;;;;;16.95;15.15;;;2.80;99.90;;;;;;4973354;28;20214;-74
2021/01/26 08:26:51;;;;;;;16.73;14.93;;;2.80;99.90;;;;;;4973795;28;20210;-75
2021/01/26 08:29:44;;;;;;;17.92;15.80;;;2.70;99.90;;;;;;4972298;28;20242;-74
2021/01/26 08:32:22;;;;;;;15.70;14.02;;;2.80;99.90;;;;;;4973965;28;20171;-74
2021/01/26 08:35:01;;;;;;;17.13;14.48;;;2.80;99.90;;;;;;4972253;28;20635;-74
2021/01/26 08:37:45;;;;;;;16.33;14.27;;;2.80;99.90;;;;;;4973575;28;20177;-75
2021/01/26 08:40:16;;;;;;;14.27;12.60;;;2.80;99.90;;;;;;4973453;28;20170;-75
2021/01/26 08:42:42;;;;;;;13.75;12.23;;;2.80;99.90;;;;;;4973519;28;20317;-74
2021/01/26 08:45:32;;;;;;;13.65;12.25;;;2.80;99.90;;;;;;4973111;28;20257;-74
2021/01/26 08:48:07;;;;;;;13.63;11.35;;;2.80;99.90;;;;;;4969382;28;20206;-74
2021/01/26 08:50:33;;;;;;;12.48;11.10;;;2.80;99.90;;;;;;4973315;28;20170;-74
2021/01/26 08:53:21;;;;;;;11.75;10.45;;;3.20;99.90;;;;;;4971749;28;20209;-74
2021/01/26 08:55:48;;;;;;;12.45;10.90;;;2.80;99.90;;;;;;4977022;28;20228;-74
2021/01/26 08:58:37;;;;;;;11.60;10.50;;;2.70;99.90;;;;;;4992086;28;20193;-74
2021/01/26 09:01:03;;;;;;;11.40;9.65;;;2.80;99.90;;;;;;4991356;28;20730;-74
2021/01/26 09:03:41;;;;;;;10.75;9.75;;;2.80;99.90;;;;;;4992700;28;20663;-74
2021/01/26 09:06:13;;;;;;;11.93;10.35;;;2.80;99.90;;;;;;4990847;28;20169;-74
2021/01/26 09:08:42;;;;;;;12.20;10.77;;;2.80;99.90;;;;;;4972591;28;20832;-74
2021/01/26 09:11:27;;;;;;;12.48;11.18;;;2.80;99.90;;;;;;4971745;28;20213;-74
2021/01/26 09:14:02;;;;;;;12.55;10.73;;;2.80;99.90;;;;;;4971919;28;20221;-74
2021/01/26 09:16:29;;;;;;;11.07;10.00;;;2.90;99.90;;;;;;4971836;28;20353;-74
2021/01/26 09:18:59;;;;;;;12.88;11.35;;;2.90;99.90;;;;;;4973269;28;20187;-74
2021/01/26 09:21:29;;;;;;;11.90;10.70;;;3.00;99.90;;;;;;4973007;28;20205;-74
2021/01/26 09:23:55;;;;;;;11.38;10.18;;;2.90;99.90;;;;;;4971885;28;20206;-73
2021/01/26 09:26:21;;;;;;;13.60;10.52;;;3.20;99.90;;;;;;4971719;28;20629;-73
2021/01/26 09:28:49;;;;;;;10.73;9.73;;;2.90;99.90;;;;;;4971610;28;20205;-73
2021/01/26 09:31:18;;;;;;;10.82;9.73;;;3.00;99.90;;;;;;4967984;28;20649;-68
2021/01/26 09:33:45;;;;;;;11.82;10.40;;;3.00;99.90;;;;;;4971110;28;20203;-69
2021/01/26 09:36:19;;;;;;;9.38;8.45;;;3.00;99.90;;;;;;4971695;28;20171;-69
2021/01/26 09:38:48;;;;;;;10.75;9.23;;;3.10;99.90;;;;;;4971369;28;20252;-70
2021/01/26 09:41:29;;;;;;;10.00;9.00;;;3.10;99.90;;;;;;4970007;28;20657;-70
2021/01/26 09:44:07;;;;;;;11.32;10.10;;;3.10;99.90;;;;;;4971676;28;20189;-70
2021/01/26 09:46:45;;;;;;;10.98;9.63;;;3.10;99.90;;;;;;4970686;28;20186;-69
2021/01/26 09:49:26;;;;;;;10.40;9.30;;;3.10;99.90;;;;;;4972107;28;20683;-69
2021/01/26 09:52:10;;;;;;;10.75;9.65;;;3.10;99.90;;;;;;4971233;28;20652;-70
2021/01/26 09:54:39;;;;;;;10.05;8.95;;;3.20;99.90;;;;;;4972341;28;20245;-69
2021/01/26 09:57:07;;;;;;;9.73;8.70;;;3.10;99.90;;;;;;4975392;28;20167;-69
2021/01/26 09:59:35;;;;;;;8.60;7.80;;;3.10;99.90;;;;;;4976480;28;20248;-70
2021/01/26 10:02:05;;;;;;;9.07;8.18;;;3.20;99.90;;;;;;4975152;28;20656;-70
2021/01/26 10:04:36;;;;;;;8.57;7.75;;;3.20;99.90;;;;;;4975129;28;20198;-70
2021/01/26 10:07:07;;;;;;;9.13;8.23;;;3.10;99.90;;;;;;4975177;28;20178;-70
2021/01/26 10:09:40;;;;;;;8.90;8.10;;;3.20;99.90;;;;;;4974658;28;20296;-70
2021/01/26 10:12:22;;;;;;;8.70;7.75;;;3.30;99.90;;;;;;4976324;28;20170;-70
2021/01/26 10:15:09;;;;;;;8.35;7.55;;;3.10;99.90;;;;;;4976117;28;20637;-70
2021/01/26 10:17:51;;;;;;;9.15;7.75;;;3.00;99.90;;;;;;4975812;28;20807;-69
2021/01/26 10:20:28;;;;;;;8.68;7.80;;;2.60;99.90;;;;;;4976068;28;20660;-69
2021/01/26 10:23:13;;;;;;;9.93;8.93;;;3.10;99.90;;;;;;4975869;28;20196;-70
2021/01/26 10:25:42;;;;;;;9.15;8.13;;;3.10;99.90;;;;;;4973961;28;20282;-70
2021/01/26 10:28:24;;;;;;;10.48;8.10;;;3.10;99.90;;;;;;4972670;28;20241;-71
2021/01/26 10:30:50;;;;;;;9.10;8.15;;;3.10;99.90;;;;;;4972635;28;20210;-69
2021/01/26 10:33:38;;;;;;;10.65;8.30;;;3.20;99.90;;;;;;4965440;28;20608;-70
2021/01/26 10:36:28;;;;;;;9.13;8.10;;;3.20;99.90;;;;;;4962184;28;20185;-70
2021/01/26 10:38:56;;;;;;;9.35;8.35;;;3.10;99.90;;;;;;4955995;28;20728;-69
2021/01/26 10:41:23;;;;;;;9.25;8.35;;;3.00;99.90;;;;;;4956481;28;20638;-70
2021/01/26 10:44:10;;;;;;;9.63;8.63;;;3.10;99.90;;;;;;4955094;28;20203;-71
2021/01/26 10:46:45;;;;;;;9.88;8.88;;;3.10;99.90;;;;;;4972556;28;20183;-69
2021/01/26 10:49:23;;;;;;;9.68;8.77;;;3.00;99.90;;;;;;4972957;28;20194;-74
2021/01/26 10:51:48;;;;;;;10.13;8.90;;;3.00;99.90;;;;;;4969033;28;20214;-70
2021/01/26 10:54:14;;;;;;;10.95;9.85;;;3.00;99.90;;;;;;4955785;29;20786;-70
2021/01/26 10:56:42;;;;;;;9.63;8.63;;;3.00;99.90;;;;;;4954473;29;20198;-69
2021/01/26 10:59:09;;;;;;;9.45;8.55;;;3.10;99.90;;;;;;4954648;28;20249;-70
2021/01/26 11:01:36;;;;;;;10.20;9.18;;;3.00;99.90;;;;;;4955968;28;20172;-71
2021/01/26 11:04:02;;;;;;;10.10;7.65;;;3.00;99.90;;;;;;4962372;28;20289;-69
2021/01/26 11:06:28;;;;;;;8.70;7.88;;;3.00;99.90;;;;;;4988900;28;20676;-69
2021/01/26 11:08:54;;;;;;;8.57;7.78;;;3.30;99.90;;;;;;4987648;28;20230;-69
2021/01/26 11:11:28;;;;;;;7.75;6.95;;;3.00;99.90;;;;;;4961114;28;20269;-69
2021/01/26 11:13:57;;;;;;;7.85;6.90;;;3.00;99.90;;;;;;4958793;28;20210;-70
2021/01/26 11:16:25;;;;;;;6.45;5.80;;;2.80;99.90;;;;;;4955766;28;20176;-69
2021/01/26 11:18:51;;;;;;;5.63;5.13;;;3.10;99.90;;;;;;4955721;28;20242;-69
2021/01/26 11:21:17;;;;;;;5.75;5.15;;;3.00;99.90;;;;;;4958508;28;20202;-69
2021/01/26 11:23:43;;;;;;;5.35;4.85;;;3.10;99.90;;;;;;4974046;28;20241;-69
2021/01/26 11:26:13;;;;;;;5.32;4.78;;;3.00;99.90;;;;;;4963840;28;20206;-70
2021/01/26 11:28:39;;;;;;;6.68;5.40;;;3.10;99.90;;;;;;4974607;28;20705;-68
2021/01/26 11:31:04;;;;;;;5.68;5.07;;;3.10;99.90;;;;;;4958284;28;20221;-68
2021/01/26 11:33:31;;;;;;;4.80;4.30;;;3.10;99.90;;;;;;4967300;28;20305;-68
2021/01/26 11:35:58;;;;;;;4.95;4.45;;;3.00;99.90;;;;;;4968816;28;20255;-68
2021/01/26 11:38:24;;;;;;;6.03;4.63;;;3.10;99.90;;;;;;4970500;28;20217;-67
2021/01/26 11:40:50;;;;;;;6.22;5.00;;;3.00;99.90;;;;;;4962525;28;20182;-69
2021/01/26 11:43:17;;;;;;;5.20;4.50;;;3.00;99.90;;;;;;4962273;28;20198;-68
2021/01/26 11:45:44;;;;;;;5.55;5.03;;;3.00;99.90;;;;;;4968057;28;20183;-66
2021/01/26 11:48:11;;;;;;;5.35;4.60;;;2.90;99.90;;;;;;4973814;28;20222;-67
2021/01/26 11:50:37;;;;;;;5.90;4.28;;;2.90;99.90;;;;;;4962485;28;20493;-67
2021/01/26 11:53:10;;;;;;;5.03;4.43;;;3.00;99.90;;;;;;4966610;28;20209;-67
2021/01/26 11:55:36;;;;;;;4.72;4.32;;;3.00;99.90;;;;;;4974119;28;20191;-67
2021/01/26 11:58:02;;;;;;;6.05;4.65;;;3.00;99.90;;;;;;4974191;28;20273;-68
2021/01/26 12:00:31;;;;;;;5.40;4.90;;;2.90;99.90;;;;;;4974153;28;20249;-68
2021/01/26 12:02:57;;;;;;;4.70;4.20;;;3.00;99.90;;;;;;4962711;28;20242;-68
2021/01/26 12:05:26;;;;;;;5.22;4.72;;;3.00;99.90;;;;;;4960538;28;20237;-69
2021/01/26 12:07:53;;;;;;;4.38;4.03;;;3.00;99.90;;;;;;4965971;28;20210;-68
2021/01/26 12:10:19;;;;;;;4.55;4.15;;;3.00;99.90;;;;;;4970779;28;20210;-67
2021/01/26 12:12:45;;;;;;;5.13;4.35;;;3.00;99.90;;;;;;4965273;28;20199;-68
2021/01/26 12:15:17;;;;;;;4.60;4.15;;;3.00;99.90;;;;;;4962209;28;20225;-68
2021/01/26 12:17:43;;;;;;;5.07;4.25;;;3.00;99.90;;;;;;4963977;28;20213;-68
2021/01/26 12:20:10;;;;;;;4.15;3.72;;;3.50;99.90;;;;;;4961087;28;20170;-67
2021/01/26 12:22:36;;;;;;;5.07;4.50;;;;;;;;;;4963125;28;20168;-68
2021/01/26 12:25:01;;;;;;;5.47;4.65;;;3.40;99.90;;;;;;4961133;28;20202;-67
2021/01/26 12:27:27;;;;;;;4.82;4.25;;;;;;;;;;4961572;28;20257;-66
2021/01/26 12:29:53;;;;;;;4.47;3.92;;;3.10;99.90;;;;;;4968549;28;20174;-66
2021/01/26 12:32:19;;;;;;;4.40;4.00;;;3.10;99.90;;;;;;4971905;28;20181;-66
2021/01/26 12:34:44;;;;;;;4.85;4.00;;;3.10;99.90;;;;;;4973639;28;20217;-66
2021/01/26 12:37:10;;;;;;;4.82;4.43;;;3.10;99.90;;;;;;4962945;28;20634;-68
2021/01/26 12:39:36;;;;;;;6.65;4.60;;;3.00;99.90;;;;;;4953735;28;20198;-69
2021/01/26 12:42:02;;;;;;;4.90;4.28;;;;;;;;;;4952968;29;20171;-66
2021/01/26 12:44:27;;;;;;;4.60;4.20;;;3.00;99.90;;;;;;4952940;29;20199;-68
2021/01/26 12:46:54;;;;;;;4.63;4.15;;;;;;;;;;4956327;28;20193;-68
2021/01/26 12:49:21;;;;;;;4.95;4.30;;;2.90;99.90;;;;;;4958890;28;20191;-67
2021/01/26 12:51:47;;;;;;;5.13;4.28;;;2.90;99.90;;;;;;4967931;28;20178;-71
2021/01/26 12:54:12;;;;;;;4.63;4.00;;;2.90;99.90;;;;;;4968712;28;20214;-72
2021/01/26 12:56:38;;;;;;;4.93;4.40;;;2.90;99.90;;;;;;4965967;28;20210;-74
2021/01/26 12:59:04;;;;;;;4.72;3.83;;;;;;;;;;4961729;28;20194;-74
2021/01/26 13:01:30;;;;;;;4.95;4.45;;;2.90;99.90;;;;;;4963394;28;20172;-71
2021/01/26 13:03:56;;;;;;;3.92;3.55;;;2.90;99.90;;;;;;4965493;28;20220;-73
2021/01/26 13:06:21;;;;;;;4.10;3.60;;;2.90;99.90;;;;;;4973001;28;20657;-72
2021/01/26 13:08:47;;;;;;;3.85;3.45;;;2.90;99.90;;;;;;4971359;28;20237;-72
2021/01/26 13:11:13;;;;;;;3.78;3.47;;;3.00;99.90;;;;;;4973039;28;20170;-72
2021/01/26 13:13:39;;;;;;;3.70;3.40;;;2.90;99.90;;;;;;4966127;28;20613;-71
2021/01/26 13:16:05;;;;;;;5.10;3.00;;;2.80;99.90;;;;;;4952642;29;20205;-71
2021/01/26 13:18:30;;;;;;;3.90;3.50;;;2.90;99.90;;;;;;4953563;29;20589;-71
2021/01/26 13:20:57;;;;;;;4.25;3.58;;;2.80;99.90;;;;;;4953817;29;20178;-72
2021/01/26 13:23:24;;;;;;;5.38;4.20;;;2.80;99.90;;;;;;4952185;29;20206;-71
2021/01/26 13:25:49;;;;;;;4.22;3.83;;;2.80;99.90;;;;;;4960417;28;20670;-72
2021/01/26 13:28:15;;;;;;;7.25;4.65;;;2.80;99.90;;;;;;4967690;28;20752;-72
2021/01/26 13:30:42;;;;;;;4.47;4.07;;;2.80;99.90;;;;;;4966275;28;20199;-73
2021/01/26 13:33:08;;;;;;;5.28;4.78;;;2.80;99.90;;;;;;4976651;28;20182;-71
2021/01/26 13:35:34;;;;;;;4.60;4.20;;;2.80;99.90;;;;;;4973819;28;20210;-72
2021/01/26 13:38:02;;;;;;;4.97;4.45;;;2.80;99.90;;;;;;4973020;28;20233;-72
2021/01/26 13:40:28;;;;;;;5.63;4.40;;;2.80;99.90;;;;;;4993245;28;20260;-70
2021/01/26 13:42:54;;;;;;;4.78;4.38;;;2.80;99.90;;;;;;4973553;28;20208;-67
2021/01/26 13:45:24;;;;;;;4.55;4.03;;;2.80;99.90;;;;;;4976555;28;20537;-70
2021/01/26 13:47:50;;;;;;;5.07;4.20;;;2.80;99.90;;;;;;4976184;28;20640;-69
2021/01/26 13:50:17;;;;;;;4.63;3.95;;;2.90;99.90;;;;;;4976613;28;20205;-68
2021/01/26 13:52:42;;;;;;;5.20;4.38;;;2.90;99.90;;;;;;4975708;28;20238;-68
2021/01/26 13:55:09;;;;;;;5.35;4.43;;;2.90;99.90;;;;;;4990982;28;20218;-69
2021/01/26 13:57:35;;;;;;;4.65;4.13;;;2.90;99.90;;;;;;4960232;28;20207;-68
2021/01/26 14:00:05;;;;;;;5.28;3.92;;;2.90;99.90;;;;;;4969963;28;20186;-73
2021/01/26 14:02:31;;;;;;;5.40;4.18;;;2.90;99.90;;;;;;4959238;28;20183;-73
2021/01/26 14:04:56;;;;;;;3.53;3.20;;;2.90;99.90;;;;;;4956490;29;20528;-72
2021/01/26 14:07:22;;;;;;;4.25;3.85;;;3.00;99.90;;;;;;4956179;28;20167;-72
2021/01/26 14:09:48;;;;;;;4.68;3.92;;;2.90;99.90;;;;;;4954444;29;20250;-73
2021/01/26 14:12:14;;;;;;;5.50;3.90;;;2.90;99.90;;;;;;4955398;29;20331;-72
2021/01/26 14:14:40;;;;;;;5.10;3.45;;;2.90;99.90;;;;;;4955396;28;20737;-73
2021/01/26 14:17:05;;;;;;;4.50;3.70;;;2.90;99.90;;;;;;4957035;28;20199;-73
2021/01/26 14:19:32;;;;;;;5.60;3.55;;;2.90;99.90;;;;;;4970899;28;20205;-73
2021/01/26 14:21:58;;;;;;;4.72;3.35;;;2.90;99.90;;;;;;4976269;28;20166;-73
2021/01/26 14:24:24;;;;;;;4.15;3.75;;;3.00;99.90;;;;;;4961909;28;20269;-73
2021/01/26 14:26:49;;;;;;;5.55;3.53;;;2.90;99.90;;;;;;4956853;28;20522;-74
2021/01/26 14:29:15;;;;;;;4.50;4.10;;;2.90;99.90;;;;;;4963845;28;20562;-73
2021/01/26 14:31:41;;;;;;;4.47;3.60;;;2.90;99.90;;;;;;4971389;28;20221;-73
2021/01/26 14:34:06;;;;;;;4.03;3.55;;;2.90;99.90;;;;;;4969358;28;20575;-72
2021/01/26 14:36:32;;;;;;;5.88;4.55;;;2.90;99.90;;;;;;4990888;28;20174;-73
2021/01/26 14:38:58;;;;;;;4.57;4.05;;;2.90;99.90;;;;;;4990185;28;20206;-73
2021/01/26 14:41:24;;;;;;;4.22;3.83;;;2.90;99.90;;;;;;4975010;28;20513;-69
2021/01/26 14:43:51;;;;;;;5.07;4.07;;;2.90;99.90;;;;;;4973427;28;20198;-69
2021/01/26 14:46:17;;;;;;;6.25;4.50;;;2.90;99.90;;;;;;4974994;28;20179;-70
2021/01/26 14:48:43;;;;;;;5.70;4.10;;;2.90;99.90;;;;;;4972219;28;20751;-74
2021/01/26 14:51:08;;;;;;;5.80;4.20;;;2.80;99.90;;;;;;4975767;28;20194;-73
2021/01/26 14:53:34;;;;;;;4.75;4.25;;;2.80;99.90;;;;;;4975084;28;20622;-72
2021/01/26 14:56:00;;;;;;;5.28;4.40;;;2.80;99.90;;;;;;4972135;28;20182;-74
2021/01/26 14:58:25;;;;;;;5.15;4.53;;;2.80;99.90;;;;;;4961124;28;20571;-74
2021/01/26 15:00:51;;;;;;;8.35;4.88;;;2.80;99.90;;;;;;4975348;28;20166;-74
2021/01/26 15:03:17;;;;;;;5.32;4.13;;;2.80;99.90;;;;;;4975478;28;20195;-74
2021/01/26 15:05:43;;;;;;;5.28;4.50;;;2.80;99.90;;;;;;4975550;28;20163;-73
2021/01/26 15:08:09;;;;;;;6.30;4.07;;;2.80;99.90;;;;;;4958718;28;20590;-74
2021/01/26 15:10:35;;;;;;;5.22;4.32;;;2.80;99.90;;;;;;4966267;28;20179;-74
2021/01/26 15:13:01;;;;;;;5.32;4.40;;;2.80;99.90;;;;;;4963782;28;20669;-73
2021/01/26 15:15:28;;;;;;;4.93;4.25;;;2.80;99.90;;;;;;4962923;28;20211;-74
2021/01/26 15:17:54;;;;;;;7.47;3.88;;;2.80;99.90;;;;;;4966464;28;20202;-74
2021/01/26 15:20:22;;;;;;;4.68;4.05;;;2.80;99.90;;;;;;4968965;28;20666;-74
2021/01/26 15:22:48;;;;;;;5.28;4.30;;;2.80;99.90;;;;;;4974039;28;20434;-68
2021/01/26 15:25:15;;;;;;;7.60;4.47;;;2.80;99.90;;;;;;4962211;28;20202;-64
2021/01/26 15:27:41;;;;;;;4.50;3.53;;;2.80;99.90;;;;;;4971576;28;20202;-68
2021/01/26 15:30:10;;;;;;;4.22;3.83;;;2.90;99.90;;;;;;4954120;28;20218;-71
2021/01/26 15:32:36;;;;;;;4.95;3.83;;;2.90;99.90;;;;;;4961173;28;20727;-73
2021/01/26 15:35:02;;;;;;;4.40;3.88;;;2.90;99.90;;;;;;4974877;28;20198;-71
2021/01/26 15:37:30;;;;;;;3.95;3.17;;;2.80;99.90;;;;;;4966781;28;20196;-72
2021/01/26 15:39:56;;;;;;;4.10;3.70;;;2.80;99.90;;;;;;4953153;28;20171;-72
2021/01/26 15:42:21;;;;;;;4.13;3.72;;;2.90;99.90;;;;;;4955390;28;20179;-72
2021/01/26 15:44:47;;;;;;;5.90;3.78;;;2.80;99.90;;;;;;4955380;29;20178;-68
2021/01/26 15:47:15;;;;;;;3.95;3.22;;;2.80;99.90;;;;;;4973442;28;20583;-69
2021/01/26 15:49:41;;;;;;;4.10;3.20;;;2.80;99.90;;;;;;4974303;28;20264;-68
2021/01/26 15:52:07;;;;;;;5.22;3.78;;;2.90;99.90;;;;;;4974430;28;20177;-69
2021/01/26 15:54:33;;;;;;;4.18;3.72;;;2.80;99.90;;;;;;4966470;28;20218;-69
2021/01/26 15:56:58;;;;;;;5.00;3.33;;;2.80;99.90;;;;;;4962932;28;20336;-68
2021/01/26 15:59:24;;;;;;;5.13;3.25;;;2.80;99.90;;;;;;4954967;29;20282;-68
2021/01/26 16:01:51;;;;;;;4.30;3.45;;;2.80;99.90;;;;;;4959972;28;20221;-74
2021/01/26 16:04:17;;;;;;;4.95;4.13;;;2.80;99.90;;;;;;4959669;28;20585;-73
2021/01/26 16:06:46;;;;;;;4.05;3.65;;;2.80;99.90;;;;;;4971400;28;20171;-73
2021/01/26 16:09:13;;;;;;;4.90;3.92;;;2.80;99.90;;;;;;4970861;28;20230;-73
2021/01/26 16:11:39;;;;;;;4.85;3.90;;;2.90;99.90;;;;;;4972447;28;20183;-73
2021/01/26 16:14:05;;;;;;;4.75;3.95;;;2.80;99.90;;;;;;4974110;28;20599;-73
2021/01/26 16:16:31;;;;;;;7.35;4.45;;;2.80;99.90;;;;;;4972558;28;20183;-73
2021/01/26 16:18:57;;;;;;;4.30;3.90;;;2.80;99.90;;;;;;4970499;28;20312;-72
2021/01/26 16:21:23;;;;;;;3.55;3.08;;;2.80;99.90;;;;;;4963609;28;20258;-73
2021/01/26 16:23:50;;;;;;;4.20;3.50;;;2.80;99.90;;;;;;4961185;28;20238;-73
2021/01/26 16:26:16;;;;;;;4.97;3.67;;;2.70;99.90;;;;;;4964085;28;20175;-73
2021/01/26 16:28:43;;;;;;;4.30;3.90;;;2.70;99.90;;;;;;4962352;28;20191;-73
2021/01/26 16:31:09;;;;;;;4.78;3.83;;;2.70;99.90;;;;;;4961556;28;20174;-74
2021/01/26 16:33:35;;;;;;;5.55;3.72;;;2.80;99.90;;;;;;4958685;28;20197;-69
2021/01/26 16:36:00;;;;;;;4.88;4.15;;;2.80;99.90;;;;;;4973910;28;20178;-70
2021/01/26 16:38:26;;;;;;;3.65;3.35;;;2.80;99.90;;;;;;4967589;28;20213;-69
2021/01/26 16:40:54;;;;;;;4.78;4.28;;;2.70;99.90;;;;;;4972206;28;20581;-69
2021/01/26 16:43:20;;;;;;;5.50;3.50;;;2.80;99.90;;;;;;4972399;28;20186;-69
2021/01/26 16:45:47;;;;;;;4.63;3.95;;;2.80;99.90;;;;;;4972669;28;20178;-68
2021/01/26 16:48:14;;;;;;;5.55;3.35;;;2.70;99.90;;;;;;4966136;28;20234;-69
2021/01/26 16:50:42;;;;;;;4.07;3.67;;;2.70;99.90;;;;;;4955535;28;20241;-70
2021/01/26 16:53:08;;;;;;;3.78;3.38;;;2.70;99.90;;;;;;4955102;28;20195;-70
2021/01/26 16:55:34;;;;;;;4.35;3.67;;;2.70;99.90;;;;;;4958141;28;20214;-68
2021/01/26 16:58:01;;;;;;;6.07;3.55;;;2.70;99.90;;;;;;4953343;28;20282;-67
2021/01/26 17:00:31;;;;;;;5.30;4.13;;;2.70;99.90;;;;;;4950986;29;20218;-69
2021/01/26 17:02:57;;;;;;;3.95;3.53;;;2.70;99.90;;;;;;4953737;28;20318;-69
2021/01/26 17:05:24;;;;;;;4.05;3.15;;;2.70;99.90;;;;;;4953760;28;20175;-68
2021/01/26 17:07:50;;;;;;;3.83;3.30;;;2.70;99.90;;;;;;4952855;28;20195;-69
2021/01/26 17:10:17;;;;;;;4.03;3.53;;;2.70;99.90;;;;;;4952295;29;20179;-69
2021/01/26 17:12:43;;;;;;;3.72;3.35;;;2.70;99.90;;;;;;4953774;28;20187;-69
2021/01/26 17:15:10;;;;;;;4.70;4.03;;;2.70;99.90;;;;;;4954071;29;20239;-69
2021/01/26 17:17:37;;;;;;;7.28;3.75;;;2.70;99.90;;;;;;4953851;28;21212;-69